sensor_id;sensor_type;location;lat;lon;timestamp;pressure;altitude;pressure_sealevel;temperature;humidity
12182;BME280;6154;51.550;12.138;2022-11-02T00:01:50;100885.78;;;14.84;59.88
12182;BME280;6154;51.550;12.138;2022-11-02T00:04:19;100885.00;;;14.82;59.80
12182;BME280;6154;51.550;12.138;2022-11-02T00:06:47;100883.41;;;14.80;59.80
12182;BME280;6154;51.550;12.138;2022-11-02T00:09:16;100891.50;;;14.78;59.83
12182;BME280;6154;51.550;12.138;2022-11-02T00:11:44;100890.84;;;14.75;59.87
12182;BME280;6154;51.550;12.138;2022-11-02T00:14:14;100885.69;;;14.72;59.87
12182;BME280;6154;51.550;12.138;2022-11-02T00:16:43;100879.72;;;14.68;59.92
12182;BME280;6154;51.550;12.138;2022-11-02T00:19:11;100885.16;;;14.66;60.02
12182;BME280;6154;51.550;12.138;2022-11-02T00:21:40;100884.41;;;14.64;59.84
12182;BME280;6154;51.550;12.138;2022-11-02T00:24:09;100888.09;;;14.62;59.82
12182;BME280;6154;51.550;12.138;2022-11-02T00:26:39;100891.19;;;14.56;59.88
12182;BME280;6154;51.550;12.138;2022-11-02T00:29:07;100900.22;;;14.53;60.07
12182;BME280;6154;51.550;12.138;2022-11-02T00:31:37;100899.75;;;14.47;60.19
12182;BME280;6154;51.550;12.138;2022-11-02T00:34:06;100901.81;;;14.42;60.34
12182;BME280;6154;51.550;12.138;2022-11-02T00:36:34;100908.19;;;14.39;60.19
12182;BME280;6154;51.550;12.138;2022-11-02T00:39:03;100890.81;;;14.33;60.18
12182;BME280;6154;51.550;12.138;2022-11-02T00:41:31;100895.56;;;14.28;60.25
12182;BME280;6154;51.550;12.138;2022-11-02T00:44:00;100888.63;;;14.26;60.22
12182;BME280;6154;51.550;12.138;2022-11-02T00:46:31;100887.94;;;14.22;60.36
12182;BME280;6154;51.550;12.138;2022-11-02T00:49:01;100886.22;;;14.21;60.47
12182;BME280;6154;51.550;12.138;2022-11-02T00:51:31;100891.75;;;14.18;60.66
12182;BME280;6154;51.550;12.138;2022-11-02T00:54:00;100886.44;;;14.18;60.67
12182;BME280;6154;51.550;12.138;2022-11-02T00:56:28;100884.63;;;14.19;60.78
12182;BME280;6154;51.550;12.138;2022-11-02T00:58:57;100881.88;;;14.20;60.70
12182;BME280;6154;51.550;12.138;2022-11-02T01:01:25;100889.75;;;14.22;60.79
12182;BME280;6154;51.550;12.138;2022-11-02T01:03:55;100882.62;;;14.22;60.72
12182;BME280;6154;51.550;12.138;2022-11-02T01:06:24;100880.81;;;14.23;60.71
12182;BME280;6154;51.550;12.138;2022-11-02T01:08:57;100882.62;;;14.22;60.79
12182;BME280;6154;51.550;12.138;2022-11-02T01:11:26;100881.69;;;14.23;60.91
12182;BME280;6154;51.550;12.138;2022-11-02T01:13:54;100884.25;;;14.25;60.77
12182;BME280;6154;51.550;12.138;2022-11-02T01:16:22;100880.75;;;14.24;60.83
12182;BME280;6154;51.550;12.138;2022-11-02T01:18:51;100882.53;;;14.24;60.84
12182;BME280;6154;51.550;12.138;2022-11-02T01:21:20;100872.94;;;14.21;60.81
12182;BME280;6154;51.550;12.138;2022-11-02T01:23:50;100881.75;;;14.22;60.81
12182;BME280;6154;51.550;12.138;2022-11-02T01:26:19;100881.88;;;14.20;60.77
12182;BME280;6154;51.550;12.138;2022-11-02T01:28:48;100872.16;;;14.19;60.79
12182;BME280;6154;51.550;12.138;2022-11-02T01:31:16;100874.84;;;14.19;60.76
12182;BME280;6154;51.550;12.138;2022-11-02T01:33:45;100882.81;;;14.19;60.63
12182;BME280;6154;51.550;12.138;2022-11-02T01:36:17;100878.44;;;14.18;60.57
12182;BME280;6154;51.550;12.138;2022-11-02T01:38:54;100881.22;;;14.17;60.63
12182;BME280;6154;51.550;12.138;2022-11-02T01:41:22;100880.34;;;14.16;60.60
12182;BME280;6154;51.550;12.138;2022-11-02T01:43:54;100878.56;;;14.17;60.55
12182;BME280;6154;51.550;12.138;2022-11-02T01:46:32;100876.00;;;14.15;60.49
12182;BME280;6154;51.550;12.138;2022-11-02T01:49:06;100887.50;;;14.16;60.53
12182;BME280;6154;51.550;12.138;2022-11-02T01:51:38;100874.28;;;14.14;60.57
12182;BME280;6154;51.550;12.138;2022-11-02T01:54:11;100883.22;;;14.13;60.56
12182;BME280;6154;51.550;12.138;2022-11-02T01:56:43;100877.78;;;14.15;60.60
12182;BME280;6154;51.550;12.138;2022-11-02T01:59:17;100877.97;;;14.12;60.52
12182;BME280;6154;51.550;12.138;2022-11-02T02:01:47;100873.50;;;14.12;60.71
12182;BME280;6154;51.550;12.138;2022-11-02T02:04:19;100873.44;;;14.14;60.60
12182;BME280;6154;51.550;12.138;2022-11-02T02:06:48;100863.63;;;14.14;60.64
12182;BME280;6154;51.550;12.138;2022-11-02T02:09:19;100866.28;;;14.14;60.72
12182;BME280;6154;51.550;12.138;2022-11-02T02:11:49;100864.50;;;14.15;60.85
12182;BME280;6154;51.550;12.138;2022-11-02T02:14:18;100869.59;;;14.18;60.79
12182;BME280;6154;51.550;12.138;2022-11-02T02:17:07;100863.34;;;14.19;60.86
12182;BME280;6154;51.550;12.138;2022-11-02T02:19:43;100865.72;;;14.23;61.38
12182;BME280;6154;51.550;12.138;2022-11-02T02:22:28;100860.41;;;14.23;61.03
12182;BME280;6154;51.550;12.138;2022-11-02T02:25:18;100857.53;;;14.26;61.25
12182;BME280;6154;51.550;12.138;2022-11-02T02:28:02;100851.25;;;14.27;61.39
12182;BME280;6154;51.550;12.138;2022-11-02T02:30:37;100853.59;;;14.32;61.27
12182;BME280;6154;51.550;12.138;2022-11-02T02:33:10;100853.53;;;14.33;61.06
12182;BME280;6154;51.550;12.138;2022-11-02T02:35:42;100855.25;;;14.34;61.10
12182;BME280;6154;51.550;12.138;2022-11-02T02:38:14;100856.00;;;14.36;61.04
12182;BME280;6154;51.550;12.138;2022-11-02T02:40:49;100850.78;;;14.35;61.02
12182;BME280;6154;51.550;12.138;2022-11-02T02:43:28;100858.06;;;14.31;61.10
12182;BME280;6154;51.550;12.138;2022-11-02T02:46:04;100852.84;;;14.30;61.14
12182;BME280;6154;51.550;12.138;2022-11-02T02:48:35;100852.84;;;14.30;61.02
12182;BME280;6154;51.550;12.138;2022-11-02T02:51:08;100847.72;;;14.27;61.08
12182;BME280;6154;51.550;12.138;2022-11-02T02:53:40;100844.31;;;14.25;61.03
12182;BME280;6154;51.550;12.138;2022-11-02T02:56:15;100845.19;;;14.25;60.98
12182;BME280;6154;51.550;12.138;2022-11-02T02:58:49;100839.94;;;14.24;60.95
12182;BME280;6154;51.550;12.138;2022-11-02T03:01:20;100840.81;;;14.24;60.90
12182;BME280;6154;51.550;12.138;2022-11-02T03:03:50;100830.34;;;14.21;60.87
12182;BME280;6154;51.550;12.138;2022-11-02T03:06:21;100835.00;;;14.18;60.80
12182;BME280;6154;51.550;12.138;2022-11-02T03:08:57;100841.56;;;14.12;60.82
12182;BME280;6154;51.550;12.138;2022-11-02T03:11:30;100840.91;;;14.08;60.78
12182;BME280;6154;51.550;12.138;2022-11-02T03:14:06;100842.16;;;14.03;60.70
12182;BME280;6154;51.550;12.138;2022-11-02T03:16:50;100839.03;;;13.96;61.09
12182;BME280;6154;51.550;12.138;2022-11-02T03:19:35;100840.75;;;13.83;61.82
12182;BME280;6154;51.550;12.138;2022-11-02T03:22:09;100840.91;;;13.80;61.55
12182;BME280;6154;51.550;12.138;2022-11-02T03:24:43;100833.97;;;13.77;61.22
12182;BME280;6154;51.550;12.138;2022-11-02T03:27:18;100826.31;;;13.73;61.29
12182;BME280;6154;51.550;12.138;2022-11-02T03:29:52;100828.28;;;13.69;61.03
12182;BME280;6154;51.550;12.138;2022-11-02T03:32:26;100824.00;;;13.67;61.02
12182;BME280;6154;51.550;12.138;2022-11-02T03:35:03;100821.62;;;13.62;60.92
12182;BME280;6154;51.550;12.138;2022-11-02T03:37:37;100819.16;;;13.59;61.06
12182;BME280;6154;51.550;12.138;2022-11-02T03:40:11;100817.34;;;13.60;60.89
12182;BME280;6154;51.550;12.138;2022-11-02T03:42:42;100830.75;;;13.58;60.88
12182;BME280;6154;51.550;12.138;2022-11-02T03:45:15;100820.09;;;13.58;60.79
12182;BME280;6154;51.550;12.138;2022-11-02T03:47:47;100819.06;;;13.61;60.83
12182;BME280;6154;51.550;12.138;2022-11-02T03:50:19;100823.53;;;13.60;60.79
12182;BME280;6154;51.550;12.138;2022-11-02T03:52:54;100827.97;;;13.60;60.88
12182;BME280;6154;51.550;12.138;2022-11-02T03:55:28;100828.19;;;13.57;60.76
12182;BME280;6154;51.550;12.138;2022-11-02T03:57:57;100834.44;;;13.56;60.99
12182;BME280;6154;51.550;12.138;2022-11-02T04:00:31;100835.41;;;13.55;60.88
12182;BME280;6154;51.550;12.138;2022-11-02T04:03:02;100830.19;;;13.53;60.87
12182;BME280;6154;51.550;12.138;2022-11-02T04:05:35;100826.63;;;13.52;60.76
12182;BME280;6154;51.550;12.138;2022-11-02T04:08:05;100832.16;;;13.49;60.78
12182;BME280;6154;51.550;12.138;2022-11-02T04:10:51;100828.06;;;13.44;60.87
12182;BME280;6154;51.550;12.138;2022-11-02T04:13:38;100828.34;;;13.39;61.16
12182;BME280;6154;51.550;12.138;2022-11-02T04:16:25;100837.72;;;13.31;61.16
12182;BME280;6154;51.550;12.138;2022-11-02T04:18:55;100834.84;;;13.19;61.67
12182;BME280;6154;51.550;12.138;2022-11-02T04:21:41;100837.75;;;13.15;61.83
12182;BME280;6154;51.550;12.138;2022-11-02T04:24:31;100832.53;;;13.13;61.47
12182;BME280;6154;51.550;12.138;2022-11-02T04:27:16;100832.53;;;13.13;61.42
12182;BME280;6154;51.550;12.138;2022-11-02T04:29:47;100838.72;;;13.14;61.66
12182;BME280;6154;51.550;12.138;2022-11-02T04:32:18;100822.66;;;13.15;61.93
12182;BME280;6154;51.550;12.138;2022-11-02T04:35:08;100833.09;;;13.18;61.63
12182;BME280;6154;51.550;12.138;2022-11-02T04:37:37;100837.50;;;13.19;61.76
12182;BME280;6154;51.550;12.138;2022-11-02T04:40:24;100828.59;;;13.20;61.86
12182;BME280;6154;51.550;12.138;2022-11-02T04:42:53;100830.97;;;13.25;61.94
12182;BME280;6154;51.550;12.138;2022-11-02T04:45:22;100832.59;;;13.28;62.00
12182;BME280;6154;51.550;12.138;2022-11-02T04:47:58;100830.59;;;13.31;62.15
12182;BME280;6154;51.550;12.138;2022-11-02T04:50:28;100834.72;;;13.37;62.41
12182;BME280;6154;51.550;12.138;2022-11-02T04:52:57;100822.25;;;13.37;62.21
12182;BME280;6154;51.550;12.138;2022-11-02T04:55:27;100814.19;;;13.39;62.07
12182;BME280;6154;51.550;12.138;2022-11-02T04:57:56;100823.87;;;13.40;62.04
12182;BME280;6154;51.550;12.138;2022-11-02T05:00:25;100822.06;;;13.40;62.26
12182;BME280;6154;51.550;12.138;2022-11-02T05:02:55;100817.59;;;13.41;62.08
12182;BME280;6154;51.550;12.138;2022-11-02T05:05:24;100817.59;;;13.41;62.07
12182;BME280;6154;51.550;12.138;2022-11-02T05:07:54;100815.81;;;13.41;62.14
12182;BME280;6154;51.550;12.138;2022-11-02T05:10:22;100816.66;;;13.42;62.02
12182;BME280;6154;51.550;12.138;2022-11-02T05:12:55;100811.44;;;13.40;61.86
12182;BME280;6154;51.550;12.138;2022-11-02T05:15:25;100820.25;;;13.41;61.77
12182;BME280;6154;51.550;12.138;2022-11-02T05:17:55;100817.69;;;13.39;61.66
12182;BME280;6154;51.550;12.138;2022-11-02T05:20:25;100816.09;;;13.37;61.56
12182;BME280;6154;51.550;12.138;2022-11-02T05:22:53;100820.66;;;13.35;61.64
12182;BME280;6154;51.550;12.138;2022-11-02T05:25:22;100819.81;;;13.34;61.62
12182;BME280;6154;51.550;12.138;2022-11-02T05:27:51;100813.69;;;13.32;61.74
12182;BME280;6154;51.550;12.138;2022-11-02T05:30:19;100824.31;;;13.32;61.74
12182;BME280;6154;51.550;12.138;2022-11-02T05:32:48;100820.91;;;13.30;61.85
12182;BME280;6154;51.550;12.138;2022-11-02T05:35:19;100824.44;;;13.31;62.08
12182;BME280;6154;51.550;12.138;2022-11-02T05:37:48;100828.03;;;13.30;61.97
12182;BME280;6154;51.550;12.138;2022-11-02T05:40:16;100829.75;;;13.31;61.99
12182;BME280;6154;51.550;12.138;2022-11-02T05:42:46;100828.88;;;13.30;62.00
12182;BME280;6154;51.550;12.138;2022-11-02T05:45:14;100835.06;;;13.31;62.04
12182;BME280;6154;51.550;12.138;2022-11-02T05:47:50;100830.69;;;13.30;62.11
12182;BME280;6154;51.550;12.138;2022-11-02T05:50:20;100825.28;;;13.31;62.12
12182;BME280;6154;51.550;12.138;2022-11-02T05:52:51;100826.81;;;13.35;62.13
12182;BME280;6154;51.550;12.138;2022-11-02T05:55:19;100825.88;;;13.36;62.26
12182;BME280;6154;51.550;12.138;2022-11-02T05:57:50;100825.03;;;13.36;62.43
12182;BME280;6154;51.550;12.138;2022-11-02T06:00:20;100828.44;;;13.38;62.48
12182;BME280;6154;51.550;12.138;2022-11-02T06:02:54;100830.03;;;13.40;62.56
12182;BME280;6154;51.550;12.138;2022-11-02T06:05:24;100834.34;;;13.43;62.74
12182;BME280;6154;51.550;12.138;2022-11-02T06:07:57;100828.06;;;13.44;62.55
12182;BME280;6154;51.550;12.138;2022-11-02T06:10:26;100838.53;;;13.47;62.55
12182;BME280;6154;51.550;12.138;2022-11-02T06:12:55;100840.22;;;13.48;62.61
12182;BME280;6154;51.550;12.138;2022-11-02T06:15:23;100850.66;;;13.51;62.70
12182;BME280;6154;51.550;12.138;2022-11-02T06:17:52;100850.50;;;13.54;62.73
12182;BME280;6154;51.550;12.138;2022-11-02T06:20:21;100856.59;;;13.56;62.63
12182;BME280;6154;51.550;12.138;2022-11-02T06:22:50;100861.81;;;13.58;62.58
12182;BME280;6154;51.550;12.138;2022-11-02T06:25:19;100863.50;;;13.59;62.52
12182;BME280;6154;51.550;12.138;2022-11-02T06:27:49;100861.59;;;13.61;62.77
12182;BME280;6154;51.550;12.138;2022-11-02T06:30:19;100865.03;;;13.63;62.66
12182;BME280;6154;51.550;12.138;2022-11-02T06:32:47;100870.28;;;13.64;62.98
12182;BME280;6154;51.550;12.138;2022-11-02T06:35:17;100859.44;;;13.67;62.95
12182;BME280;6154;51.550;12.138;2022-11-02T06:37:46;100863.81;;;13.68;62.88
12182;BME280;6154;51.550;12.138;2022-11-02T06:40:16;100865.50;;;13.69;63.20
12182;BME280;6154;51.550;12.138;2022-11-02T06:42:54;100866.09;;;13.74;63.20
12182;BME280;6154;51.550;12.138;2022-11-02T06:45:42;100874.63;;;13.79;63.13
12182;BME280;6154;51.550;12.138;2022-11-02T06:48:11;100878.75;;;13.85;63.23
12182;BME280;6154;51.550;12.138;2022-11-02T06:50:39;100873.97;;;13.90;63.10
12182;BME280;6154;51.550;12.138;2022-11-02T06:53:07;100883.19;;;13.99;63.08
12182;BME280;6154;51.550;12.138;2022-11-02T06:55:37;100877.97;;;14.12;63.10
12182;BME280;6154;51.550;12.138;2022-11-02T06:58:06;100883.41;;;14.24;63.28
12182;BME280;6154;51.550;12.138;2022-11-02T07:00:34;100883.38;;;14.38;63.28
12182;BME280;6154;51.550;12.138;2022-11-02T07:03:05;100887.19;;;14.49;63.26
12182;BME280;6154;51.550;12.138;2022-11-02T07:05:34;100890.59;;;14.65;63.18
12182;BME280;6154;51.550;12.138;2022-11-02T07:08:04;100896.81;;;14.78;63.25
12182;BME280;6154;51.550;12.138;2022-11-02T07:10:32;100895.06;;;14.91;63.01
12182;BME280;6154;51.550;12.138;2022-11-02T07:13:03;100899.50;;;15.05;62.98
12182;BME280;6154;51.550;12.138;2022-11-02T07:15:32;100899.53;;;15.18;62.99
12182;BME280;6154;51.550;12.138;2022-11-02T07:18:00;100901.19;;;15.33;62.84
12182;BME280;6154;51.550;12.138;2022-11-02T07:20:29;100910.06;;;15.46;62.83
12182;BME280;6154;51.550;12.138;2022-11-02T07:22:59;100910.00;;;15.61;62.74
12182;BME280;6154;51.550;12.138;2022-11-02T07:25:29;100912.78;;;15.72;62.52
12182;BME280;6154;51.550;12.138;2022-11-02T07:27:58;100921.78;;;15.84;62.21
12182;BME280;6154;51.550;12.138;2022-11-02T07:30:29;100918.56;;;15.91;62.16
12182;BME280;6154;51.550;12.138;2022-11-02T07:32:58;100920.81;;;15.97;62.01
12182;BME280;6154;51.550;12.138;2022-11-02T07:35:27;100919.22;;;16.07;62.04
12182;BME280;6154;51.550;12.138;2022-11-02T07:37:56;100919.53;;;16.16;61.96
12182;BME280;6154;51.550;12.138;2022-11-02T07:40:26;100919.41;;;16.30;61.93
12182;BME280;6154;51.550;12.138;2022-11-02T07:42:55;100924.63;;;16.44;62.00
12182;BME280;6154;51.550;12.138;2022-11-02T07:45:29;100932.41;;;16.60;61.91
12182;BME280;6154;51.550;12.138;2022-11-02T07:47:57;100934.19;;;16.72;61.84
12182;BME280;6154;51.550;12.138;2022-11-02T07:50:27;100941.13;;;16.87;61.69
12182;BME280;6154;51.550;12.138;2022-11-02T07:52:56;100948.13;;;17.01;61.68
12182;BME280;6154;51.550;12.138;2022-11-02T07:55:28;100944.66;;;17.12;61.46
12182;BME280;6154;51.550;12.138;2022-11-02T07:57:58;100945.56;;;17.23;61.44
12182;BME280;6154;51.550;12.138;2022-11-02T08:00:30;100939.44;;;17.34;61.44
12182;BME280;6154;51.550;12.138;2022-11-02T08:03:00;100933.16;;;17.46;61.15
12182;BME280;6154;51.550;12.138;2022-11-02T08:05:30;100939.88;;;17.63;61.31
12182;BME280;6154;51.550;12.138;2022-11-02T08:08:02;100936.06;;;17.78;61.06
12182;BME280;6154;51.550;12.138;2022-11-02T08:10:32;100928.66;;;17.93;61.04
12182;BME280;6154;51.550;12.138;2022-11-02T08:13:06;100930.53;;;18.04;60.98
12182;BME280;6154;51.550;12.138;2022-11-02T08:15:36;100927.34;;;18.10;60.49
12182;BME280;6154;51.550;12.138;2022-11-02T08:18:06;100933.69;;;18.20;60.54
12182;BME280;6154;51.550;12.138;2022-11-02T08:20:36;100933.94;;;18.28;60.32
12182;BME280;6154;51.550;12.138;2022-11-02T08:23:05;100930.88;;;18.33;60.13
12182;BME280;6154;51.550;12.138;2022-11-02T08:25:36;100922.38;;;18.39;59.84
12182;BME280;6154;51.550;12.138;2022-11-02T08:28:06;100926.88;;;18.27;58.43
12182;BME280;6154;51.550;12.138;2022-11-02T08:30:37;100926.41;;;18.56;59.73
12182;BME280;6154;51.550;12.138;2022-11-02T08:33:11;100926.62;;;18.42;59.54
12182;BME280;6154;51.550;12.138;2022-11-02T08:35:43;100927.38;;;18.55;59.13
12182;BME280;6154;51.550;12.138;2022-11-02T08:38:12;100933.94;;;18.62;59.60
12182;BME280;6154;51.550;12.138;2022-11-02T08:40:40;100924.94;;;18.74;59.66
12182;BME280;6154;51.550;12.138;2022-11-02T08:43:10;100924.44;;;18.80;58.73
12182;BME280;6154;51.550;12.138;2022-11-02T08:45:42;100932.50;;;18.69;58.71
12182;BME280;6154;51.550;12.138;2022-11-02T08:48:32;100923.94;;;18.86;58.11
12182;BME280;6154;51.550;12.138;2022-11-02T08:51:02;100933.66;;;18.99;59.18
12182;BME280;6154;51.550;12.138;2022-11-02T08:53:31;100918.00;;;19.15;59.00
12182;BME280;6154;51.550;12.138;2022-11-02T08:56:00;100926.81;;;19.06;58.98
12182;BME280;6154;51.550;12.138;2022-11-02T08:58:28;100931.59;;;18.91;57.69
12182;BME280;6154;51.550;12.138;2022-11-02T09:00:58;100931.78;;;19.10;58.74
12182;BME280;6154;51.550;12.138;2022-11-02T09:03:26;100924.31;;;19.14;58.32
12182;BME280;6154;51.550;12.138;2022-11-02T09:05:57;100936.25;;;19.21;58.72
12182;BME280;6154;51.550;12.138;2022-11-02T09:08:26;100935.22;;;19.33;57.98
12182;BME280;6154;51.550;12.138;2022-11-02T09:10:58;100932.09;;;19.28;57.71
12182;BME280;6154;51.550;12.138;2022-11-02T09:13:27;100935.59;;;19.40;58.05
12182;BME280;6154;51.550;12.138;2022-11-02T09:15:58;100929.72;;;19.46;57.01
12182;BME280;6154;51.550;12.138;2022-11-02T09:18:27;100935.09;;;19.46;57.64
12182;BME280;6154;51.550;12.138;2022-11-02T09:20:59;100948.63;;;19.44;56.65
12182;BME280;6154;51.550;12.138;2022-11-02T09:23:28;100954.50;;;19.70;56.84
12182;BME280;6154;51.550;12.138;2022-11-02T09:25:57;100946.88;;;19.87;57.36
12182;BME280;6154;51.550;12.138;2022-11-02T09:28:25;100946.66;;;19.78;56.94
12182;BME280;6154;51.550;12.138;2022-11-02T09:30:53;100946.00;;;19.86;56.48
12182;BME280;6154;51.550;12.138;2022-11-02T09:33:23;100954.38;;;19.72;54.84
12182;BME280;6154;51.550;12.138;2022-11-02T09:35:52;100950.06;;;19.80;56.00
12182;BME280;6154;51.550;12.138;2022-11-02T09:38:20;100951.66;;;20.14;56.39
12182;BME280;6154;51.550;12.138;2022-11-02T09:40:55;100952.84;;;20.21;55.96
12182;BME280;6154;51.550;12.138;2022-11-02T09:43:35;100959.06;;;20.21;55.41
12182;BME280;6154;51.550;12.138;2022-11-02T09:46:08;100958.78;;;20.15;53.81
12182;BME280;6154;51.550;12.138;2022-11-02T09:48:40;100975.94;;;20.54;55.58
12182;BME280;6154;51.550;12.138;2022-11-02T09:51:12;100974.94;;;20.45;54.21
12182;BME280;6154;51.550;12.138;2022-11-02T09:53:51;100972.69;;;20.50;53.55
12182;BME280;6154;51.550;12.138;2022-11-02T09:56:23;100977.09;;;20.51;53.24
12182;BME280;6154;51.550;12.138;2022-11-02T09:58:56;100979.72;;;20.72;55.27
12182;BME280;6154;51.550;12.138;2022-11-02T10:01:35;100984.31;;;20.91;53.59
12182;BME280;6154;51.550;12.138;2022-11-02T10:04:33;100975.81;;;20.86;53.31
12182;BME280;6154;51.550;12.138;2022-11-02T10:07:19;100968.16;;;20.91;50.74
12182;BME280;6154;51.550;12.138;2022-11-02T10:09:57;100978.56;;;20.65;51.80
12182;BME280;6154;51.550;12.138;2022-11-02T10:12:32;100979.03;;;20.80;52.61
12182;BME280;6154;51.550;12.138;2022-11-02T10:15:08;100976.84;;;20.54;51.25
12182;BME280;6154;51.550;12.138;2022-11-02T10:17:39;100985.72;;;20.85;53.70
12182;BME280;6154;51.550;12.138;2022-11-02T10:20:18;100991.69;;;20.89;53.33
12182;BME280;6154;51.550;12.138;2022-11-02T10:22:49;100980.66;;;21.02;51.66
12182;BME280;6154;51.550;12.138;2022-11-02T10:25:18;100987.91;;;21.20;53.60
12182;BME280;6154;51.550;12.138;2022-11-02T10:27:49;100975.44;;;21.10;52.67
12182;BME280;6154;51.550;12.138;2022-11-02T10:30:21;100989.16;;;20.97;51.15
12182;BME280;6154;51.550;12.138;2022-11-02T10:32:51;100980.41;;;21.05;53.33
12182;BME280;6154;51.550;12.138;2022-11-02T10:35:29;100982.31;;;20.93;52.90
12182;BME280;6154;51.550;12.138;2022-11-02T10:38:29;100979.25;;;21.07;49.75
12182;BME280;6154;51.550;12.138;2022-11-02T10:41:12;100994.13;;;21.02;48.93
12182;BME280;6154;51.550;12.138;2022-11-02T10:43:58;100982.19;;;21.35;49.63
12182;BME280;6154;51.550;12.138;2022-11-02T10:46:39;100993.13;;;21.12;49.40
12182;BME280;6154;51.550;12.138;2022-11-02T10:49:15;100993.00;;;21.23;49.15
12182;BME280;6154;51.550;12.138;2022-11-02T10:51:48;100996.59;;;21.34;50.88
12182;BME280;6154;51.550;12.138;2022-11-02T10:54:17;100999.63;;;21.60;51.11
12182;BME280;6154;51.550;12.138;2022-11-02T10:56:55;100998.59;;;21.32;49.90
12182;BME280;6154;51.550;12.138;2022-11-02T10:59:25;101000.16;;;21.44;51.78
12182;BME280;6154;51.550;12.138;2022-11-02T11:02:10;101012.38;;;21.58;51.21
12182;BME280;6154;51.550;12.138;2022-11-02T11:04:40;101002.28;;;21.31;46.45
12182;BME280;6154;51.550;12.138;2022-11-02T11:07:16;101003.69;;;21.44;48.68
12182;BME280;6154;51.550;12.138;2022-11-02T11:09:47;101014.22;;;21.38;47.94
12182;BME280;6154;51.550;12.138;2022-11-02T11:12:20;101002.59;;;21.47;50.60
12182;BME280;6154;51.550;12.138;2022-11-02T11:14:52;101014.44;;;21.25;49.99
12182;BME280;6154;51.550;12.138;2022-11-02T11:17:42;101007.13;;;21.37;51.28
12182;BME280;6154;51.550;12.138;2022-11-02T11:20:33;101017.06;;;21.46;51.34
12182;BME280;6154;51.550;12.138;2022-11-02T11:23:16;101013.37;;;21.47;50.01
12182;BME280;6154;51.550;12.138;2022-11-02T11:25:57;101008.69;;;21.49;47.28
12182;BME280;6154;51.550;12.138;2022-11-02T11:28:28;101004.28;;;21.38;47.67
12182;BME280;6154;51.550;12.138;2022-11-02T11:31:03;101007.66;;;21.31;50.86
12182;BME280;6154;51.550;12.138;2022-11-02T11:33:42;100999.13;;;21.26;48.46
12182;BME280;6154;51.550;12.138;2022-11-02T11:36:21;100998.19;;;21.27;48.14
12182;BME280;6154;51.550;12.138;2022-11-02T11:38:59;100997.69;;;21.21;46.65
12182;BME280;6154;51.550;12.138;2022-11-02T11:41:28;101007.38;;;21.43;49.65
12182;BME280;6154;51.550;12.138;2022-11-02T11:43:59;101002.75;;;21.45;50.86
12182;BME280;6154;51.550;12.138;2022-11-02T11:46:38;101005.31;;;21.66;49.48
12182;BME280;6154;51.550;12.138;2022-11-02T11:49:17;101005.56;;;21.83;47.59
12182;BME280;6154;51.550;12.138;2022-11-02T11:52:02;100994.62;;;21.74;46.12
12182;BME280;6154;51.550;12.138;2022-11-02T11:54:32;100998.91;;;21.96;46.91
12182;BME280;6154;51.550;12.138;2022-11-02T11:57:21;101000.75;;;22.15;46.93
12182;BME280;6154;51.550;12.138;2022-11-02T11:59:50;100987.38;;;22.04;43.38
12182;BME280;6154;51.550;12.138;2022-11-02T12:02:23;100997.47;;;21.92;46.95
12182;BME280;6154;51.550;12.138;2022-11-02T12:05:01;100992.06;;;22.02;47.59
12182;BME280;6154;51.550;12.138;2022-11-02T12:07:56;101000.63;;;22.07;46.46
12182;BME280;6154;51.550;12.138;2022-11-02T12:11:01;100984.59;;;21.57;43.67
12182;BME280;6154;51.550;12.138;2022-11-02T12:13:53;100987.84;;;21.41;44.22
12182;BME280;6154;51.550;12.138;2022-11-02T12:16:29;100994.13;;;21.02;44.00
12182;BME280;6154;51.550;12.138;2022-11-02T12:19:11;100994.50;;;21.47;46.61
12182;BME280;6154;51.550;12.138;2022-11-02T12:21:53;100985.56;;;21.37;45.24
12182;BME280;6154;51.550;12.138;2022-11-02T12:24:36;100989.37;;;21.44;46.92
12182;BME280;6154;51.550;12.138;2022-11-02T12:27:18;100978.75;;;21.33;45.91
12182;BME280;6154;51.550;12.138;2022-11-02T12:29:59;100989.19;;;21.16;45.04
12182;BME280;6154;51.550;12.138;2022-11-02T12:33:02;100984.06;;;21.13;47.40
12182;BME280;6154;51.550;12.138;2022-11-02T12:35:48;100979.13;;;21.09;44.86
12182;BME280;6154;51.550;12.138;2022-11-02T12:38:32;100981.47;;;20.92;45.33
12182;BME280;6154;51.550;12.138;2022-11-02T12:41:07;100978.66;;;20.84;44.44
12182;BME280;6154;51.550;12.138;2022-11-02T12:43:41;100977.34;;;21.29;47.16
12182;BME280;6154;51.550;12.138;2022-11-02T12:46:30;100987.56;;;21.35;47.69
12182;BME280;6154;51.550;12.138;2022-11-02T12:49:22;100984.75;;;21.56;45.41
12182;BME280;6154;51.550;12.138;2022-11-02T12:52:03;100987.53;;;21.44;44.93
12182;BME280;6154;51.550;12.138;2022-11-02T12:54:38;100987.56;;;21.64;45.57
12182;BME280;6154;51.550;12.138;2022-11-02T12:57:12;100991.84;;;21.66;46.41
12182;BME280;6154;51.550;12.138;2022-11-02T12:59:44;100985.00;;;21.81;48.23
12182;BME280;6154;51.550;12.138;2022-11-02T13:02:19;100992.66;;;21.96;47.43
12182;BME280;6154;51.550;12.138;2022-11-02T13:04:55;101005.28;;;21.95;45.55
12182;BME280;6154;51.550;12.138;2022-11-02T13:07:28;101006.00;;;22.17;46.46
12182;BME280;6154;51.550;12.138;2022-11-02T13:10:02;101015.50;;;21.82;46.25
12182;BME280;6154;51.550;12.138;2022-11-02T13:12:34;101007.69;;;21.98;46.64
12182;BME280;6154;51.550;12.138;2022-11-02T13:15:11;100997.47;;;21.83;45.93
12182;BME280;6154;51.550;12.138;2022-11-02T13:20:14;100999.19;;;21.64;46.11
12182;BME280;6154;51.550;12.138;2022-11-02T13:22:49;101001.91;;;21.45;46.97
12182;BME280;6154;51.550;12.138;2022-11-02T13:25:26;100989.25;;;21.74;46.77